MSSS/SAL METAR and TAF weather

Enter ICAO airport designator
Station Type Date Time Source
MSSS METAR 2020/04/03 21:50 UTC NOAA

MSSS 032150Z 20011KT 9999 FEW050 30/21 Q1011 A2986 RMK HZ


Station Type Date Time Source
MSSS Decoded METAR 2020/04/03 21:50 UTC NOAA

San Salvador / Ilopango, El Salvador (MSSS) 13-42N 089-07W 621M
Apr 03, 2020 - 05:50 PM EDT / 2020.04.03 2150 UTC
Wind: from the SSW (200 degrees) at 13 MPH (11 KT):0
Visibility: greater than 7 mile(s):0
Sky conditions: mostly clear
Temperature: 86 F (30 C)
Dew Point: 69 F (21 C)
Relative Humidity: 58%
Pressure (altimeter): 29.86 in. Hg (1011 hPa)
ob: MSSS 032150Z 20011KT 9999 FEW050 30/21 Q1011 A2986 RMK HZ
cycle: 22

Station Type Date Time Source
MSSS TAF 2020/04/04 06:54 UTC NOAA

TAF MSSS 040325Z 0406/0506 34003KT CAVOK TX31/0420Z TN23/0412Z
FM041500 13008KT 9999 SCT050
FM041800 22008KT

Example: see airport list